Terminal Aerodrome Forecast
Issued by NWS Corpus Christi, TX

Home | Current Version | Previous Version | Text Only | Print | Product List | Glossary On
Versions: 1 2 3 4 5 6 7 8 9 10 11 12 13 14 15 16
000
FTUS44 KCRP 010700 AAA
TAFVCT
TAF AMD
KVCT 010743Z 0108/0206 VRB03KT 1/4SM FG BKN003
     FM011400 VRB04KT P6SM SCT010
      TEMPO 0114/0115 1/2SM FG BKN005
     FM011500 17010KT P6SM SCT025
     FM020100 16008KT P6SM SCT015
      TEMPO 0204/0206 4SM BR=

USA.gov is the U.S. government's official web portal to all federal, state and local government web resources and services.